Raton, NM

8:46 AM MDT on September 23, 2017 (GMT -0600)
Raton Municipal-Crews | | Change Station

Elev 6352 ft 36.74 °N, 104.50 °W | Updated 25 minutes ago

Thunderstorm
Thunderstorm
56 °F
Feels Like 56 °F
N
25
Wind Variable Wind from South
Gusts 36 mph

Today
High -- | Low -- °F
--% Chance of Precip.
Yesterday
High -- | Low -- °F
Precip. -- in
Pressure 30.02 in
Visibility 1.5 miles
Clouds Scattered Clouds 1000 ft
Mostly Cloudy 2100 ft
Overcast 8000 ft
Dew Point 55 °F
Humidity 97%
Rainfall 0.04 in
Snow Depth Not available.
6:46 AM 6:52 PM
Waxing Crescent, 12% visible
SPECI KRTN 231421Z AUTO 18022G31KT 1 1/2SM +TSRA BR SCT010 BKN021 OVC080 13/13 A3002 RMK AO2 PK WND 18031/1421 WSHFT 1340 LTG DSNT N AND NE AND S TSE1358B21 P0004 T01330128
Pressure 30.02 in
Visibility 1.5 miles
Clouds Scattered Clouds 1000 ft
Mostly Cloudy 2100 ft
Overcast 8000 ft
Dew Point 55 °F
Humidity 97%
Rainfall 0.04 in
Snow Depth Not available.
6:46 AM 6:52 PM
Waxing Crescent, 12% visible
SPECI KRTN 231421Z AUTO 18022G31KT 1 1/2SM +TSRA BR SCT010 BKN021 OVC080 13/13 A3002 RMK AO2 PK WND 18031/1421 WSHFT 1340 LTG DSNT N AND NE AND S TSE1358B21 P0004 T01330128

Get Severe Weather Alerts

Thanks for signing up!

Be on the lookout for a verification email in your inbox.

You'll start receiving the daily forecast at 6 AM.

×

10-Day Weather Forecast

Almanac

Astronomy

Sep. 23, 2017 Rise Set
Actual Time
Civil Twilight
Nautical Twilight
Astronomical Twilight
Moon
Length of Visible Light
Length of Day
Tomorrow will be .
, % of the Moon is Illuminated

Today's Extremes

State Highs State Lows

Community

WunderPhotos

Category 6

Welcome to Category 6. This is the collective home for Weather Underground's featured writeups by Dr. Jeff Masters (right), Bob Henson (left), Chris Burt, and other regular contributors.

Nearby

Air Quality

  Air Quality AQ Index Pollutant
Not available.

Snow Depth

Station Depth Elevation

Earthquake Activity

City Distance Mag. Time & Date
Minimum magnitude displayed is 2.5.

Coastal Water Temperatures

Place Temperature

Stations

Nearby Weather Stations

Station Location Temp. Windchill Dew Point Humidity Wind Precip. Elev Updated Type
                   

Watches & Warnings

There are currently no watches in effect.